createdAt,value
2023-03-07T00:01:08.601Z,55.93
2023-03-07T00:03:36.831Z,56.29
2023-03-07T00:06:08.449Z,56.21
2023-03-07T00:08:35.920Z,56.58
2023-03-07T00:11:08.575Z,56.77
2023-03-07T00:13:37.984Z,56.88
2023-03-07T00:16:12.807Z,56.85
2023-03-07T00:18:41.219Z,56.86
2023-03-07T00:21:12.270Z,56.92
2023-03-07T00:23:41.769Z,57.41
2023-03-07T00:26:14.161Z,57.60
2023-03-07T00:28:43.099Z,57.70
2023-03-07T00:31:11.599Z,57.50
2023-03-07T00:33:39.425Z,57.38
2023-03-07T00:36:25.172Z,57.42
2023-03-07T00:38:52.712Z,57.02
2023-03-07T00:41:23.309Z,57.38
2023-03-07T00:43:50.500Z,56.93
2023-03-07T00:46:20.221Z,57.19
2023-03-07T00:48:48.007Z,57.09
2023-03-07T00:51:18.839Z,57.48
2023-03-07T00:53:46.533Z,57.61
2023-03-07T00:56:17.113Z,57.38
2023-03-07T00:58:45.989Z,57.95
2023-03-07T01:01:16.235Z,58.20
2023-03-07T01:03:44.139Z,58.39
2023-03-07T01:06:16.370Z,58.48
2023-03-07T01:08:44.149Z,58.40
2023-03-07T01:11:12.705Z,58.81
2023-03-07T01:13:40.331Z,58.16
2023-03-07T01:16:32.466Z,58.66
2023-03-07T01:19:04.196Z,58.65
2023-03-07T01:21:35.595Z,58.28
2023-03-07T01:24:12.331Z,58.53
2023-03-07T01:26:39.405Z,59.12
2023-03-07T01:29:07.791Z,59.06
2023-03-07T01:31:36.423Z,59.08
2023-03-07T01:34:04.057Z,59.01
2023-03-07T01:36:35.619Z,58.47
2023-03-07T01:39:14.118Z,58.46
2023-03-07T01:41:46.206Z,58.63
2023-03-07T01:44:21.902Z,58.91
2023-03-07T01:46:56.192Z,58.30
2023-03-07T01:49:36.567Z,58.46
2023-03-07T01:52:15.217Z,58.84
2023-03-07T01:54:52.190Z,58.23
2023-03-07T01:57:28.492Z,58.82
2023-03-07T01:59:59.967Z,58.22
2023-03-07T02:02:29.305Z,58.10
2023-03-07T02:05:16.487Z,58.23
2023-03-07T02:07:49.570Z,58.49
2023-03-07T02:10:22.655Z,57.81
2023-03-07T02:12:52.224Z,58.02
2023-03-07T02:15:19.253Z,57.70
2023-03-07T02:17:46.531Z,57.90
2023-03-07T02:20:50.422Z,57.95
2023-03-07T02:24:02.098Z,57.46
2023-03-07T02:26:28.869Z,57.04
2023-03-07T02:28:56.189Z,57.24
2023-03-07T02:31:23.946Z,56.96
2023-03-07T02:33:50.941Z,57.13
2023-03-07T02:36:24.062Z,56.74
2023-03-07T02:39:02.634Z,56.28
2023-03-07T02:41:32.432Z,55.94
2023-03-07T02:44:02.703Z,55.83
2023-03-07T02:46:30.340Z,55.72
2023-03-07T02:48:57.399Z,55.43
2023-03-07T02:51:24.449Z,55.46
2023-03-07T02:53:51.575Z,55.11
2023-03-07T02:56:18.442Z,55.11
2023-03-07T02:58:45.978Z,55.69
2023-03-07T03:01:13.358Z,55.21
2023-03-07T03:03:40.303Z,54.81
2023-03-07T03:06:07.191Z,55.02
2023-03-07T03:08:34.118Z,54.70
2023-03-07T03:11:00.997Z,55.02
2023-03-07T03:13:28.691Z,54.61
2023-03-07T03:15:57.044Z,54.73
2023-03-07T03:18:27.721Z,54.91
2023-03-07T03:20:54.753Z,54.56
2023-03-07T03:23:21.824Z,55.04
2023-03-07T03:25:59.645Z,54.85
2023-03-07T03:28:29.279Z,55.45
2023-03-07T03:31:08.806Z,55.37
2023-03-07T03:33:36.819Z,55.87
2023-03-07T03:36:11.175Z,55.49
2023-03-07T03:38:39.237Z,56.22
2023-03-07T03:41:12.879Z,56.62
2023-03-07T03:43:40.212Z,56.77
2023-03-07T03:46:08.024Z,56.62
2023-03-07T03:48:36.694Z,56.43
2023-03-07T03:51:08.432Z,57.44
2023-03-07T03:53:37.833Z,57.32
2023-03-07T03:56:12.154Z,57.94
2023-03-07T03:58:40.776Z,58.54
2023-03-07T04:01:11.837Z,58.38
2023-03-07T04:03:42.574Z,58.47
2023-03-07T04:06:18.572Z,58.71
2023-03-07T04:08:46.695Z,58.80
2023-03-07T04:11:14.609Z,59.53
2023-03-07T04:13:41.877Z,59.62
2023-03-07T04:16:09.758Z,59.81
2023-03-07T04:18:37.037Z,60.68
2023-03-07T04:21:05.965Z,60.54
2023-03-07T04:23:33.973Z,60.59
2023-03-07T04:26:04.230Z,60.70
2023-03-07T04:28:45.232Z,61.02
2023-03-07T04:31:38.154Z,61.84
2023-03-07T04:34:06.183Z,61.41
2023-03-07T04:36:33.673Z,61.78
2023-03-07T04:39:00.602Z,62.56
2023-03-07T04:41:27.485Z,62.84
2023-03-07T04:44:04.505Z,63.08
2023-03-07T04:46:31.432Z,63.58
2023-03-07T04:48:58.785Z,63.86
2023-03-07T04:51:25.734Z,64.04
2023-03-07T04:53:52.647Z,64.44
2023-03-07T04:56:19.533Z,64.31
2023-03-07T04:58:47.674Z,64.22
2023-03-07T05:01:15.332Z,64.43
2023-03-07T05:03:42.927Z,63.73
2023-03-07T05:06:14.955Z,64.09
2023-03-07T05:08:45.838Z,64.11
2023-03-07T05:11:12.850Z,63.93
2023-03-07T05:13:39.722Z,64.09
2023-03-07T05:16:07.316Z,64.16
2023-03-07T05:18:34.223Z,63.97
2023-03-07T05:21:01.469Z,64.56
2023-03-07T05:23:29.149Z,63.99
2023-03-07T05:25:56.587Z,64.56
2023-03-07T05:28:24.832Z,64.59
2023-03-07T05:30:52.755Z,64.43
2023-03-07T05:33:20.131Z,64.68
2023-03-07T05:35:48.164Z,64.64
2023-03-07T05:38:15.851Z,63.97
2023-03-07T05:40:43.142Z,64.13
2023-03-07T05:43:11.510Z,64.27
2023-03-07T05:45:38.810Z,64.35
2023-03-07T05:48:06.008Z,63.87
2023-03-07T05:50:32.930Z,64.08
2023-03-07T05:53:00.114Z,63.68
2023-03-07T05:55:30.343Z,63.96
2023-03-07T05:57:57.888Z,63.57
2023-03-07T06:00:25.633Z,64.22
2023-03-07T06:03:05.127Z,63.72
2023-03-07T06:05:33.061Z,64.17
2023-03-07T06:08:00.118Z,63.66
2023-03-07T06:10:27.400Z,63.73
2023-03-07T06:12:54.750Z,64.09
2023-03-07T06:15:24.345Z,63.94
2023-03-07T06:17:55.277Z,64.24
2023-03-07T06:20:22.232Z,64.88
2023-03-07T06:22:49.778Z,64.62
2023-03-07T06:25:17.105Z,64.21
2023-03-07T06:27:44.273Z,64.26
2023-03-07T06:30:12.597Z,64.56
2023-03-07T06:32:40.276Z,64.41
2023-03-07T06:35:07.995Z,64.11
2023-03-07T06:37:34.896Z,64.55
2023-03-07T06:40:06.247Z,64.35
2023-03-07T06:42:35.564Z,64.19
2023-03-07T06:45:03.467Z,64.68
2023-03-07T06:47:30.394Z,64.08
2023-03-07T06:49:57.467Z,64.70
2023-03-07T06:52:24.645Z,64.55
2023-03-07T06:54:52.270Z,64.68
2023-03-07T06:57:19.264Z,64.21
2023-03-07T06:59:46.143Z,64.12
2023-03-07T07:02:15.068Z,64.55
2023-03-07T07:04:42.136Z,64.27
2023-03-07T07:07:09.156Z,64.37
2023-03-07T07:09:36.222Z,64.09
2023-03-07T07:12:04.942Z,64.57
2023-03-07T07:14:34.542Z,64.21
2023-03-07T07:17:03.309Z,63.69
2023-03-07T07:19:30.258Z,63.95
2023-03-07T07:21:58.696Z,63.46
2023-03-07T07:24:25.620Z,63.14
2023-03-07T07:26:53.747Z,63.57
2023-03-07T07:29:21.090Z,63.29
2023-03-07T07:31:49.813Z,63.32
2023-03-07T07:34:18.759Z,63.04
2023-03-07T07:36:46.291Z,63.12
2023-03-07T07:39:15.172Z,62.91
2023-03-07T07:41:44.513Z,62.86
2023-03-07T07:44:12.386Z,62.85
2023-03-07T07:46:53.653Z,62.43
2023-03-07T07:49:21.066Z,62.61
2023-03-07T07:51:47.996Z,62.68
2023-03-07T07:54:14.923Z,61.95
2023-03-07T07:56:42.098Z,62.00
2023-03-07T07:59:09.199Z,62.12
2023-03-07T08:01:36.235Z,61.83
2023-03-07T08:04:03.107Z,61.87
2023-03-07T08:06:30.772Z,61.70
2023-03-07T08:08:57.944Z,61.77
2023-03-07T08:11:24.884Z,61.71
2023-03-07T08:13:51.924Z,61.95
2023-03-07T08:16:22.432Z,61.71
2023-03-07T08:18:55.917Z,61.93
2023-03-07T08:21:24.242Z,61.79
2023-03-07T08:23:51.914Z,61.55
2023-03-07T08:26:18.782Z,61.40
2023-03-07T08:28:46.017Z,60.92
2023-03-07T08:31:18.668Z,60.78
2023-03-07T08:33:50.783Z,60.50
2023-03-07T08:36:18.226Z,60.68
2023-03-07T08:38:51.565Z,60.11
2023-03-07T08:41:20.464Z,59.56
2023-03-07T08:43:47.392Z,59.43
2023-03-07T08:46:14.482Z,59.30
2023-03-07T08:48:41.399Z,58.36
2023-03-07T08:51:12.085Z,58.48
2023-03-07T08:53:39.082Z,58.56
2023-03-07T08:56:07.645Z,58.53
2023-03-07T08:58:34.741Z,57.90
2023-03-07T09:01:01.981Z,58.16
2023-03-07T09:03:28.827Z,58.21
2023-03-07T09:05:55.738Z,57.89
2023-03-07T09:08:22.768Z,58.09
2023-03-07T09:10:49.761Z,58.16
2023-03-07T09:13:18.566Z,58.17
2023-03-07T09:15:45.855Z,58.20
2023-03-07T09:18:12.940Z,58.13
2023-03-07T09:20:40.366Z,58.30
2023-03-07T09:23:08.363Z,57.81
2023-03-07T09:25:35.270Z,57.94
2023-03-07T09:28:02.167Z,57.29
2023-03-07T09:30:29.082Z,57.63
2023-03-07T09:32:57.066Z,57.30
2023-03-07T09:35:24.734Z,57.27
2023-03-07T09:37:51.598Z,56.93
2023-03-07T09:40:25.457Z,56.70
2023-03-07T09:43:10.523Z,55.97
2023-03-07T09:46:30.093Z,56.02
2023-03-07T09:49:16.985Z,55.71
2023-03-07T09:51:46.726Z,56.00
2023-03-07T09:54:21.693Z,55.52
2023-03-07T09:57:02.314Z,55.34
2023-03-07T09:59:58.684Z,55.50
2023-03-07T10:02:48.359Z,55.38
2023-03-07T10:05:35.441Z,55.13
2023-03-07T10:08:05.083Z,55.21
2023-03-07T10:10:50.198Z,54.55
2023-03-07T10:14:09.533Z,54.33
2023-03-07T10:17:11.153Z,54.01
2023-03-07T10:19:49.874Z,54.46
2023-03-07T10:22:42.834Z,54.21
2023-03-07T10:25:31.305Z,53.42
2023-03-07T10:28:25.849Z,52.94
2023-03-07T10:30:59.164Z,52.77
2023-03-07T10:33:27.628Z,52.65
2023-03-07T10:36:06.268Z,52.57
2023-03-07T10:39:30.222Z,52.06
2023-03-07T10:41:57.538Z,51.72
2023-03-07T10:44:28.488Z,51.75
2023-03-07T10:46:59.167Z,51.72
2023-03-07T10:49:37.943Z,51.12
2023-03-07T10:52:20.130Z,51.50
2023-03-07T10:54:47.025Z,51.52
2023-03-07T10:57:18.899Z,50.90
2023-03-07T10:59:48.551Z,50.97
2023-03-07T11:02:45.401Z,50.01
2023-03-07T11:05:24.402Z,50.74
2023-03-07T11:07:51.316Z,50.31
2023-03-07T11:10:40.087Z,50.05
2023-03-07T11:13:19.288Z,50.12
2023-03-07T11:15:46.920Z,50.00
2023-03-07T11:18:42.117Z,49.63
2023-03-07T11:21:34.095Z,48.76
2023-03-07T11:24:25.888Z,49.57
2023-03-07T11:26:58.414Z,49.22
2023-03-07T11:29:28.268Z,49.03
2023-03-07T11:32:10.745Z,48.88
2023-03-07T11:34:49.745Z,48.63
2023-03-07T11:37:31.288Z,49.05
2023-03-07T11:40:18.537Z,48.24
2023-03-07T11:43:10.779Z,48.46
2023-03-07T11:46:04.025Z,48.59
2023-03-07T11:49:00.372Z,47.54
2023-03-07T11:51:42.321Z,47.38
2023-03-07T11:54:56.261Z,47.29
2023-03-07T11:57:54.078Z,47.58
2023-03-07T12:00:55.706Z,47.81
2023-03-07T12:04:00.766Z,47.90
2023-03-07T12:06:56.795Z,47.68
2023-03-07T12:09:33.839Z,47.82
2023-03-07T12:12:53.708Z,47.05
2023-03-07T12:15:56.585Z,46.84
2023-03-07T12:19:19.449Z,47.14
2023-03-07T12:22:15.104Z,47.30
2023-03-07T12:24:50.118Z,46.96
2023-03-07T12:27:46.046Z,46.92
2023-03-07T12:30:33.249Z,47.79
2023-03-07T12:33:00.285Z,49.27
2023-03-07T12:35:37.140Z,50.02
2023-03-07T12:38:36.587Z,51.20
2023-03-07T12:41:39.672Z,52.30
2023-03-07T12:44:28.642Z,52.63
2023-03-07T12:47:08.890Z,52.89
2023-03-07T12:50:16.254Z,52.09
2023-03-07T12:53:16.132Z,51.52
2023-03-07T12:55:49.584Z,52.71
2023-03-07T12:58:39.658Z,53.91
2023-03-07T13:01:27.368Z,55.03
2023-03-07T13:04:09.122Z,56.20
2023-03-07T13:06:39.741Z,56.49
2023-03-07T13:09:06.708Z,57.11
2023-03-07T13:11:34.791Z,57.37
2023-03-07T13:14:04.315Z,57.24
2023-03-07T13:16:40.229Z,56.32
2023-03-07T13:19:38.970Z,56.17
2023-03-07T13:22:14.995Z,55.81
2023-03-07T13:24:43.871Z,55.40
2023-03-07T13:27:23.223Z,55.23
2023-03-07T13:30:08.163Z,54.53
2023-03-07T13:32:55.890Z,54.61
2023-03-07T13:35:29.025Z,53.97
2023-03-07T13:38:11.173Z,53.78
2023-03-07T13:40:46.681Z,52.89
2023-03-07T13:43:19.620Z,53.05
2023-03-07T13:45:50.482Z,52.96
2023-03-07T13:48:20.054Z,52.34
2023-03-07T13:50:49.537Z,52.33
2023-03-07T13:53:38.935Z,52.02
2023-03-07T13:56:19.851Z,51.87
2023-03-07T13:58:57.878Z,51.68
2023-03-07T14:02:10.640Z,51.74
2023-03-07T14:04:54.199Z,51.80
2023-03-07T14:07:35.818Z,51.45
2023-03-07T14:10:27.950Z,51.43
2023-03-07T14:13:16.490Z,49.93
2023-03-07T14:16:19.288Z,49.32
2023-03-07T14:19:06.397Z,49.30
2023-03-07T14:21:55.293Z,49.14
2023-03-07T14:24:55.724Z,49.69
2023-03-07T14:27:22.632Z,48.93
2023-03-07T14:29:57.017Z,49.35
2023-03-07T14:32:32.077Z,49.22
2023-03-07T14:34:59.767Z,48.77
2023-03-07T14:37:31.156Z,49.14
2023-03-07T14:40:31.827Z,48.77
2023-03-07T14:43:21.665Z,49.38
2023-03-07T14:46:46.303Z,49.09
2023-03-07T14:49:57.733Z,48.82
2023-03-07T14:52:31.219Z,48.90
2023-03-07T14:55:05.443Z,48.67
2023-03-07T14:57:37.945Z,48.41
2023-03-07T15:00:15.408Z,48.26
2023-03-07T15:02:57.547Z,48.01
2023-03-07T15:05:37.620Z,48.19
2023-03-07T15:08:26.738Z,48.04
2023-03-07T15:11:16.265Z,48.19
2023-03-07T15:14:00.935Z,48.17
2023-03-07T15:16:49.527Z,48.08
2023-03-07T15:20:00.263Z,47.49
2023-03-07T15:22:32.508Z,47.46
2023-03-07T15:24:59.639Z,46.83
2023-03-07T15:27:30.689Z,46.85
2023-03-07T15:30:00.464Z,47.03
2023-03-07T15:32:40.583Z,46.01
2023-03-07T15:35:10.975Z,45.65
2023-03-07T15:38:07.544Z,45.40
2023-03-07T15:40:36.124Z,45.17
2023-03-07T15:43:04.382Z,44.77
2023-03-07T15:45:34.305Z,44.65
2023-03-07T15:48:24.956Z,44.36
2023-03-07T15:50:58.213Z,43.96
2023-03-07T15:53:33.101Z,44.00
2023-03-07T15:56:03.646Z,43.84
2023-03-07T15:58:31.432Z,43.86
2023-03-07T16:01:21.892Z,43.35
2023-03-07T16:03:54.140Z,43.89
2023-03-07T16:06:40.644Z,43.92
2023-03-07T16:09:13.572Z,44.13
2023-03-07T16:11:41.895Z,43.78
2023-03-07T16:14:22.550Z,43.88
2023-03-07T16:16:49.999Z,42.81
2023-03-07T16:19:17.110Z,42.65
2023-03-07T16:21:44.015Z,41.91
2023-03-07T16:24:10.898Z,41.03
2023-03-07T16:26:39.328Z,40.98
2023-03-07T16:29:08.822Z,39.86
2023-03-07T16:31:35.790Z,39.06
2023-03-07T16:34:02.715Z,38.19
2023-03-07T16:36:29.616Z,37.98
2023-03-07T16:38:56.505Z,38.40
2023-03-07T16:41:23.422Z,38.16
2023-03-07T16:43:56.310Z,37.86
2023-03-07T16:46:24.261Z,37.72
2023-03-07T16:48:51.387Z,38.48
2023-03-07T16:51:21.624Z,38.97
2023-03-07T16:53:50.173Z,39.22
2023-03-07T16:56:40.549Z,38.38
2023-03-07T16:59:08.440Z,39.26
2023-03-07T17:01:35.535Z,39.06
2023-03-07T17:04:02.428Z,38.93
2023-03-07T17:06:38.809Z,39.02
2023-03-07T17:09:09.530Z,39.46
2023-03-07T17:11:39.356Z,40.11
2023-03-07T17:14:11.552Z,39.69
2023-03-07T17:16:45.301Z,40.33
2023-03-07T17:19:28.306Z,40.20
2023-03-07T17:21:57.517Z,40.54
2023-03-07T17:24:25.317Z,40.70
2023-03-07T17:26:53.748Z,40.70
2023-03-07T17:29:45.609Z,40.84
2023-03-07T17:32:12.622Z,41.09
2023-03-07T17:34:39.708Z,41.09
2023-03-07T17:37:07.591Z,41.32
2023-03-07T17:39:35.207Z,41.45
2023-03-07T17:42:03.212Z,41.59
2023-03-07T17:44:30.941Z,41.80
2023-03-07T17:46:58.475Z,41.74
2023-03-07T17:49:28.457Z,41.84
2023-03-07T17:51:55.396Z,41.79
2023-03-07T17:54:22.236Z,41.78
2023-03-07T17:56:49.118Z,41.89
2023-03-07T17:59:16.065Z,41.67
2023-03-07T18:01:43.123Z,41.63
2023-03-07T18:04:10.263Z,41.67
2023-03-07T18:06:39.412Z,41.71
2023-03-07T18:09:08.250Z,41.36
2023-03-07T18:11:35.885Z,41.29
2023-03-07T18:14:03.564Z,41.98
2023-03-07T18:16:31.064Z,41.26
2023-03-07T18:19:00.554Z,41.66
2023-03-07T18:21:29.777Z,41.91
2023-03-07T18:23:57.780Z,41.89
2023-03-07T18:26:25.213Z,42.01
2023-03-07T18:28:56.243Z,42.03
2023-03-07T18:31:28.096Z,42.34
2023-03-07T18:33:55.440Z,42.26
2023-03-07T18:36:24.880Z,42.09
2023-03-07T18:38:52.162Z,42.54
2023-03-07T18:41:23.110Z,42.64
2023-03-07T18:43:50.166Z,42.87
2023-03-07T18:46:20.445Z,42.67
2023-03-07T18:48:48.132Z,42.91
2023-03-07T18:51:26.609Z,42.88
2023-03-07T18:53:56.897Z,42.94
2023-03-07T18:56:24.488Z,43.36
2023-03-07T18:58:58.833Z,42.87
2023-03-07T19:01:37.234Z,42.84
2023-03-07T19:04:05.326Z,43.32
2023-03-07T19:06:39.625Z,42.85
2023-03-07T19:09:09.655Z,43.30
2023-03-07T19:11:36.682Z,43.19
2023-03-07T19:14:03.592Z,43.53
2023-03-07T19:16:30.477Z,43.31
2023-03-07T19:18:59.833Z,43.39
2023-03-07T19:21:29.444Z,43.62
2023-03-07T19:23:59.270Z,43.25
2023-03-07T19:26:26.408Z,43.69
2023-03-07T19:28:55.162Z,43.47
2023-03-07T19:31:31.175Z,43.76
2023-03-07T19:33:59.280Z,43.96
2023-03-07T19:36:28.728Z,44.37
2023-03-07T19:38:58.980Z,43.94
2023-03-07T19:41:28.302Z,44.16
2023-03-07T19:44:00.264Z,44.28
2023-03-07T19:46:27.828Z,44.61
2023-03-07T19:48:54.730Z,45.15
2023-03-07T19:51:25.322Z,44.78
2023-03-07T19:53:56.840Z,45.59
2023-03-07T19:56:32.021Z,45.74
2023-03-07T19:59:00.899Z,45.63
2023-03-07T20:01:29.807Z,46.14
2023-03-07T20:03:57.243Z,46.38
2023-03-07T20:06:29.938Z,46.11
2023-03-07T20:08:58.993Z,46.78
2023-03-07T20:11:29.879Z,46.92
2023-03-07T20:14:00.264Z,46.66
2023-03-07T20:16:29.227Z,46.92
2023-03-07T20:19:00.102Z,47.62
2023-03-07T20:21:28.670Z,47.14
2023-03-07T20:23:59.220Z,47.21
2023-03-07T20:26:31.581Z,48.03
2023-03-07T20:28:59.650Z,48.00
2023-03-07T20:31:26.813Z,48.14
2023-03-07T20:33:54.696Z,48.09
2023-03-07T20:36:25.472Z,48.07
2023-03-07T20:38:55.823Z,47.64
2023-03-07T20:41:26.479Z,47.93
2023-03-07T20:44:00.894Z,47.79
2023-03-07T20:46:28.256Z,47.90
2023-03-07T20:48:56.294Z,48.35
2023-03-07T20:51:27.195Z,48.69
2023-03-07T20:53:58.221Z,47.99
2023-03-07T20:56:28.089Z,48.62
2023-03-07T20:58:56.073Z,48.35
2023-03-07T21:01:25.559Z,48.65
2023-03-07T21:03:53.710Z,48.53
2023-03-07T21:06:21.097Z,48.50
2023-03-07T21:08:48.310Z,48.70
2023-03-07T21:11:18.655Z,48.61
2023-03-07T21:13:48.140Z,48.35
2023-03-07T21:16:21.033Z,48.53
2023-03-07T21:18:48.868Z,48.50
2023-03-07T21:21:19.659Z,48.81
2023-03-07T21:23:47.347Z,48.42
2023-03-07T21:26:17.666Z,48.88
2023-03-07T21:28:45.281Z,49.07
2023-03-07T21:31:25.139Z,49.07
2023-03-07T21:33:55.111Z,49.19
2023-03-07T21:36:23.367Z,49.51
2023-03-07T21:38:50.268Z,49.69
2023-03-07T21:41:19.108Z,49.51
2023-03-07T21:43:46.094Z,49.78
2023-03-07T21:46:14.144Z,49.46
2023-03-07T21:48:42.022Z,49.74
2023-03-07T21:51:09.504Z,49.73
2023-03-07T21:53:37.148Z,49.60
2023-03-07T21:56:08.096Z,49.64
2023-03-07T21:58:36.698Z,49.79
2023-03-07T22:01:16.443Z,50.01
2023-03-07T22:03:43.789Z,50.32
2023-03-07T22:06:13.951Z,50.19
2023-03-07T22:08:41.440Z,50.38
2023-03-07T22:11:10.267Z,50.20
2023-03-07T22:13:40.190Z,50.52
2023-03-07T22:16:20.493Z,50.38
2023-03-07T22:18:53.614Z,50.11
2023-03-07T22:21:21.226Z,51.03
2023-03-07T22:23:48.106Z,50.80
2023-03-07T22:26:15.043Z,50.44
2023-03-07T22:28:42.221Z,50.72
2023-03-07T22:31:12.240Z,51.30
2023-03-07T22:33:40.694Z,50.95
2023-03-07T22:36:11.272Z,51.23
2023-03-07T22:38:38.474Z,51.13
2023-03-07T22:41:12.346Z,51.34
2023-03-07T22:43:39.333Z,50.94
2023-03-07T22:46:07.300Z,51.23
2023-03-07T22:48:35.332Z,51.45
2023-03-07T22:51:02.496Z,51.59
2023-03-07T22:53:33.423Z,51.13
2023-03-07T22:56:01.066Z,51.60
2023-03-07T22:58:29.348Z,51.37
2023-03-07T23:00:56.293Z,51.32
2023-03-07T23:03:23.438Z,51.17
2023-03-07T23:05:50.728Z,51.10
2023-03-07T23:08:17.691Z,51.33
2023-03-07T23:10:44.663Z,51.29
2023-03-07T23:13:11.537Z,51.48
2023-03-07T23:15:41.645Z,51.57
2023-03-07T23:18:08.764Z,51.67
2023-03-07T23:20:38.854Z,51.54
2023-03-07T23:23:06.399Z,51.63
2023-03-07T23:25:33.443Z,51.73
2023-03-07T23:28:00.458Z,51.55
2023-03-07T23:30:27.373Z,51.74
2023-03-07T23:32:55.199Z,51.98
2023-03-07T23:35:22.136Z,51.79
2023-03-07T23:37:49.007Z,52.19
2023-03-07T23:40:15.908Z,51.73
2023-03-07T23:42:42.873Z,51.62
2023-03-07T23:45:10.097Z,51.96
2023-03-07T23:47:37.072Z,52.04
2023-03-07T23:50:04.231Z,51.95
2023-03-07T23:52:31.115Z,51.96
2023-03-07T23:54:57.995Z,52.46
2023-03-07T23:57:24.873Z,52.40
2023-03-07T23:59:52.084Z,52.51
